Rickmers New Orleans — V7FF2 — position and weather

sailwx.info

Track history (hours):
 
Tides and Currents Weather Stations Pressure Air Temp Water Temp Dewpoint Dewpoint Depression Visibility Wind Speed Wind Dir Waves Ship Positions

Rickmers New Orleans

Last reported at 2014-Nov-26 09:21 UTC. Time now 2014-Nov-28 03:08 UTC.
Position N 34°01' E 130°51'.

Length 192.9 m; beam 27.8 m; draft 11.2 m.

Type: Ship. MMSI: 538001922.

Date/timePositionNaut miles runAvg speedWind from/ knotsBaromVisibWave heightAir tempDewpointWater temp
2014-Nov-26 09:21N 34°01' E 130°51'  
2014-Nov-20 20:32N 31°05' E 122°36'1111.1
2014-Nov-20 19:34N 31°05' E 122°23'1414.3
2014-Nov-20 18:33N 31°12' E 122°08'1514.8
2014-Nov-20 17:33N 31°16' E 121°52'1313.3
2014-Nov-20 16:34N 31°22' E 121°38'1211.6
2014-Nov-20 15:34N 31°28' E 121°26'4 3.3
2014-Nov-20 14:23N 31°30' E 121°22'0 0.0
2014-Nov-20 13:29N 31°30' E 121°22'0 0.0
2014-Nov-20 12:29N 31°30' E 121°22'0 0.0
2014-Nov-20 11:29N 31°30' E 121°22'0 0.0
2014-Nov-20 10:32N 31°30' E 121°22'0 0.0
2014-Nov-20 09:32N 31°30' E 121°22'0 0.0
2014-Nov-20 08:29N 31°30' E 121°22'0 0.0
2014-Nov-20 07:29N 31°30' E 121°22'0 0.0
2014-Nov-20 06:29N 31°30' E 121°22'0 0.0
2014-Nov-20 05:29N 31°30' E 121°22'0 0.0
2014-Nov-20 04:23N 31°30' E 121°22'0 0.0
2014-Nov-20 03:32N 31°30' E 121°22'0 0.0
2014-Nov-20 02:32N 31°30' E 121°22'0 0.0
2014-Nov-20 01:32N 31°30' E 121°22'0 0.0
2014-Nov-20 00:32N 31°30' E 121°22'0 0.0
2014-Nov-19 23:32N 31°30' E 121°22'0 0.0
2014-Nov-19 22:29N 31°30' E 121°22'0 0.0
2014-Nov-19 21:29N 31°30' E 121°22'0 0.0
2014-Nov-19 20:32N 31°30' E 121°22'0 0.0
2014-Nov-19 19:29N 31°30' E 121°22'0 0.0
2014-Nov-19 18:29N 31°30' E 121°22'0 0.0
2014-Nov-19 17:32N 31°30' E 121°22'0 0.0
2014-Nov-19 16:29N 31°30' E 121°22'0 0.0
2014-Nov-19 15:29N 31°30' E 121°22'0 0.0
2014-Nov-19 14:29N 31°30' E 121°22'0 0.0
2014-Nov-19 13:30N 31°30' E 121°22'0 0.0
2014-Nov-19 12:32N 31°30' E 121°22'0 0.0
2014-Nov-19 11:32N 31°30' E 121°22'0 0.1
2014-Nov-19 10:32N 31°30' E 121°22'0 0.0
2014-Nov-19 09:29N 31°30' E 121°22'0 0.0
2014-Nov-19 08:29N 31°30' E 121°22'0 0.0
2014-Nov-19 07:32N 31°30' E 121°22'0 0.0
2014-Nov-19 06:32N 31°30' E 121°22'0 0.0
2014-Nov-19 05:29N 31°30' E 121°22'0 0.1
2014-Nov-19 04:32N 31°30' E 121°22'0 0.1
2014-Nov-19 03:32N 31°30' E 121°22'0 0.0
2014-Nov-19 02:29N 31°30' E 121°22'0 0.0
2014-Nov-19 01:32N 31°30' E 121°22'0 0.0
2014-Nov-19 00:32N 31°30' E 121°22'0 0.0
2014-Nov-18 23:32N 31°30' E 121°22'0 0.0
2014-Nov-18 22:26N 31°30' E 121°22'0 0.0
2014-Nov-18 21:29N 31°30' E 121°22'0 0.0
2014-Nov-18 20:26N 31°30' E 121°22'0 0.0
2014-Nov-18 19:32N 31°30' E 121°22'0 0.0
2014-Nov-18 18:32N 31°30' E 121°22'0 0.0
2014-Nov-18 17:29N 31°30' E 121°22'0 0.1
2014-Nov-18 16:29N 31°30' E 121°22'0 0.0
2014-Nov-18 15:32N 31°30' E 121°22'0 0.0
2014-Nov-18 14:29N 31°30' E 121°22'0 0.0
2014-Nov-18 13:32N 31°30' E 121°22'0 0.1
2014-Nov-18 12:32N 31°30' E 121°22'0 0.0
2014-Nov-18 11:29N 31°30' E 121°22'0 0.0
2014-Nov-18 10:32N 31°30' E 121°22'0 0.1
2014-Nov-18 09:32N 31°30' E 121°22'0 0.1
2014-Nov-18 08:32N 31°30' E 121°22'0 0.0
2014-Nov-18 07:29N 31°30' E 121°22'0 0.0
2014-Nov-18 06:29N 31°30' E 121°22'0 0.0
2014-Nov-18 05:32N 31°30' E 121°22'0 0.0
2014-Nov-18 04:29N 31°30' E 121°22'0 0.0
2014-Nov-18 03:29N 31°30' E 121°22'0 0.2
2014-Nov-18 02:33N 31°30' E 121°23'5 5.4
2014-Nov-18 01:33N 31°27' E 121°28'1110.9
2014-Nov-18 00:33N 31°21' E 121°39'1212.2
2014-Nov-17 23:33N 31°16' E 121°52'1413.7
2014-Nov-17 22:34N 31°13' E 122°07'9 8.6
2014-Nov-17 21:33N 31°08' E 122°15'11 9.5
2014-Nov-17 20:27N 31°06' E 122°27'305 9.5
2014-Nov-16 12:30N 35°57' E 120°40'1112.1
2014-Nov-16 11:33N 35°60' E 120°26'9 8.8
2014-Nov-16 10:33N 36°05' E 120°17'  
Track history (hours):
 
Tides and Currents Weather Stations Pressure Air Temp Water Temp Dewpoint Dewpoint Depression Visibility Wind Speed Wind Dir Waves Ship Positions

Rickmers New Orleans

Last reported at 2014-Nov-26 09:21 UTC. Time now 2014-Nov-28 03:08 UTC.
Position N 34°01' E 130°51'.

Length 192.9 m; beam 27.8 m; draft 11.2 m.

Type: Ship. MMSI: 538001922.

Date/timePositionNaut miles runAvg speedWind from/ knotsBaromVisibWave heightAir tempDewpointWater temp
2014-Nov-26 09:21N 34°01' E 130°51'  
2014-Nov-20 20:32N 31°05' E 122°36'1111.1
2014-Nov-20 19:34N 31°05' E 122°23'1414.3
2014-Nov-20 18:33N 31°12' E 122°08'1514.8
2014-Nov-20 17:33N 31°16' E 121°52'1313.3
2014-Nov-20 16:34N 31°22' E 121°38'1211.6
2014-Nov-20 15:34N 31°28' E 121°26'4 3.3
2014-Nov-20 14:23N 31°30' E 121°22'0 0.0
2014-Nov-20 13:29N 31°30' E 121°22'0 0.0
2014-Nov-20 12:29N 31°30' E 121°22'0 0.0
2014-Nov-20 11:29N 31°30' E 121°22'0 0.0
2014-Nov-20 10:32N 31°30' E 121°22'0 0.0
2014-Nov-20 09:32N 31°30' E 121°22'0 0.0
2014-Nov-20 08:29N 31°30' E 121°22'0 0.0
2014-Nov-20 07:29N 31°30' E 121°22'0 0.0
2014-Nov-20 06:29N 31°30' E 121°22'0 0.0
2014-Nov-20 05:29N 31°30' E 121°22'0 0.0
2014-Nov-20 04:23N 31°30' E 121°22'0 0.0
2014-Nov-20 03:32N 31°30' E 121°22'0 0.0
2014-Nov-20 02:32N 31°30' E 121°22'0 0.0
2014-Nov-20 01:32N 31°30' E 121°22'0 0.0
2014-Nov-20 00:32N 31°30' E 121°22'0 0.0
2014-Nov-19 23:32N 31°30' E 121°22'0 0.0
2014-Nov-19 22:29N 31°30' E 121°22'0 0.0
2014-Nov-19 21:29N 31°30' E 121°22'0 0.0
2014-Nov-19 20:32N 31°30' E 121°22'0 0.0
2014-Nov-19 19:29N 31°30' E 121°22'0 0.0
2014-Nov-19 18:29N 31°30' E 121°22'0 0.0
2014-Nov-19 17:32N 31°30' E 121°22'0 0.0
2014-Nov-19 16:29N 31°30' E 121°22'0 0.0
2014-Nov-19 15:29N 31°30' E 121°22'0 0.0
2014-Nov-19 14:29N 31°30' E 121°22'0 0.0
2014-Nov-19 13:30N 31°30' E 121°22'0 0.0
2014-Nov-19 12:32N 31°30' E 121°22'0 0.0
2014-Nov-19 11:32N 31°30' E 121°22'0 0.1
2014-Nov-19 10:32N 31°30' E 121°22'0 0.0
2014-Nov-19 09:29N 31°30' E 121°22'0 0.0
2014-Nov-19 08:29N 31°30' E 121°22'0 0.0
2014-Nov-19 07:32N 31°30' E 121°22'0 0.0
2014-Nov-19 06:32N 31°30' E 121°22'0 0.0
2014-Nov-19 05:29N 31°30' E 121°22'0 0.1
2014-Nov-19 04:32N 31°30' E 121°22'0 0.1
2014-Nov-19 03:32N 31°30' E 121°22'0 0.0
2014-Nov-19 02:29N 31°30' E 121°22'0 0.0
2014-Nov-19 01:32N 31°30' E 121°22'0 0.0
2014-Nov-19 00:32N 31°30' E 121°22'0 0.0
2014-Nov-18 23:32N 31°30' E 121°22'0 0.0
2014-Nov-18 22:26N 31°30' E 121°22'0 0.0
2014-Nov-18 21:29N 31°30' E 121°22'0 0.0
2014-Nov-18 20:26N 31°30' E 121°22'0 0.0
2014-Nov-18 19:32N 31°30' E 121°22'0 0.0
2014-Nov-18 18:32N 31°30' E 121°22'0 0.0
2014-Nov-18 17:29N 31°30' E 121°22'0 0.1
2014-Nov-18 16:29N 31°30' E 121°22'0 0.0
2014-Nov-18 15:32N 31°30' E 121°22'0 0.0
2014-Nov-18 14:29N 31°30' E 121°22'0 0.0
2014-Nov-18 13:32N 31°30' E 121°22'0 0.1
2014-Nov-18 12:32N 31°30' E 121°22'0 0.0
2014-Nov-18 11:29N 31°30' E 121°22'0 0.0
2014-Nov-18 10:32N 31°30' E 121°22'0 0.1
2014-Nov-18 09:32N 31°30' E 121°22'0 0.1
2014-Nov-18 08:32N 31°30' E 121°22'0 0.0
2014-Nov-18 07:29N 31°30' E 121°22'0 0.0
2014-Nov-18 06:29N 31°30' E 121°22'0 0.0
2014-Nov-18 05:32N 31°30' E 121°22'0 0.0
2014-Nov-18 04:29N 31°30' E 121°22'0 0.0
2014-Nov-18 03:29N 31°30' E 121°22'0 0.2
2014-Nov-18 02:33N 31°30' E 121°23'5 5.4
2014-Nov-18 01:33N 31°27' E 121°28'1110.9
2014-Nov-18 00:33N 31°21' E 121°39'1212.2
2014-Nov-17 23:33N 31°16' E 121°52'1413.7
2014-Nov-17 22:34N 31°13' E 122°07'9 8.6
2014-Nov-17 21:33N 31°08' E 122°15'11 9.5
2014-Nov-17 20:27N 31°06' E 122°27'305 9.5
2014-Nov-16 12:30N 35°57' E 120°40'1112.1
2014-Nov-16 11:33N 35°60' E 120°26'9 8.8
2014-Nov-16 10:33N 36°05' E 120°17'  

Dump ship's entire track history